This is the latest recevied weather packets stored in our database for station/object JH0FOG-13. If no packets are shown the sender has not sent any weather packets the latest 10 day(s).
| Time | Temp. | Humidity | Pressure | Rain* | Wind** | Luminosity | Snow |
|---|---|---|---|---|---|---|---|
| 1778244004 | 13.33° C | 88% | 1009.1 hPa | 2.54 mm | - | - | - |
| 1778242803 | 13.33° C | 90% | 1009 hPa | 1.27 mm | - | - | - |
| 1778241604 | 13.33° C | 92% | 1009 hPa | 0.76 mm | - | - | - |
| 1778240403 | 13.33° C | 93% | 1008.8 hPa | 0.51 mm | - | - | - |
| 1778239204 | 13.33° C | 94% | 1008.5 hPa | 1.02 mm | - | - | - |
| 1778238004 | 13.33° C | 94% | 1008.2 hPa | 2.03 mm | - | - | - |
| 1778236804 | 13.33° C | 93% | 1008.1 hPa | 6.35 mm | - | - | - |
| 1778235604 | 13.89° C | 94% | 1007.7 hPa | 7.87 mm | - | - | - |
| 1778234403 | 13.89° C | 94% | 1006.9 hPa | 7.11 mm | - | - | - |
| 1778233203 | 14.44° C | 94% | 1006.5 hPa | 4.32 mm | - | - | - |
| 1778232004 | 14.44° C | 94% | 1006.2 hPa | 6.1 mm | - | - | - |
| 1778230804 | 14.44° C | 93% | 1006.2 hPa | 10.16 mm | - | - | - |
| 1778229603 | 15° C | 92% | 1006.2 hPa | 10.41 mm | - | - | - |
| 1778228403 | 15.56° C | 92% | 1005.4 hPa | 6.86 mm | - | - | - |
| 1778226003 | 16.11° C | 92% | 1005 hPa | 2.29 mm | - | - | - |
| 1778224803 | 16.67° C | 92% | 1005 hPa | 2.54 mm | - | - | - |
| 1778223603 | 16.67° C | 91% | 1005.3 hPa | 2.03 mm | - | - | - |
| 1778222403 | 16.67° C | 89% | 1005.4 hPa | 2.29 mm | - | - | - |
| 1778221203 | 16.67° C | 88% | 1005.1 hPa | 3.05 mm | - | - | - |
| 1778220003 | 17.78° C | 86% | 1005.3 hPa | 2.54 mm | - | - | - |
| 1778218804 | 18.89° C | 77% | 1005.6 hPa | 1.02 mm | - | - | - |
| 1778217604 | 20° C | 72% | 1005 hPa | 0 mm | - | - | - |
| 1778216404 | 20° C | 71% | 1005.4 hPa | 0 mm | - | - | - |
| 1778215204 | 20.56° C | 67% | 1005.9 hPa | 0 mm | - | - | - |
| 1778214004 | 21.11° C | 65% | 1005.9 hPa | 0 mm | - | - | - |
* Rain latest hour (hover to see other rain measurements)
** Current wind speed in m/s (hover to see current wind gust speed)